Baytown, Minnesota
Current Conditions -  °F | °C
As of 3:50 PM on Monday 22 Dec 2014 (Local Time) from K21D Reporting Station
Drizzle Drizzle  
Wind Chill: 32°   Ceiling: 1200
Heat Index: 37°   Visibility: 3mi
Dew Point: 36°   Wind: 7mph
Humidity: 93%   Direction: 100°E
Pressure: 29.62"   Gusts: NA
Location:  45.0174°N, 92.7808°W
Report Text: K21D 222150Z AUTO 10006KT 3SM DZ OVC012 03/02 A2962 RMK AO2
Loading
Personal Weather Stations






























Interactive Weather Map New forecast layout! Learn more

10-Day Weather Forecast

Advertisements
Track Severe Weather on mobile